createdAt,value
2022-12-26T00:00:00.356Z,0
2022-12-26T00:05:00.436Z,0
2022-12-26T00:10:00.349Z,0
2022-12-26T00:15:00.355Z,0
2022-12-26T00:20:00.326Z,0
2022-12-26T00:25:00.328Z,0
2022-12-26T00:30:00.357Z,0
2022-12-26T00:35:00.322Z,0
2022-12-26T00:40:00.338Z,0
2022-12-26T00:45:00.342Z,0
2022-12-26T00:50:12.665Z,0
2022-12-26T00:55:00.336Z,0
2022-12-26T01:00:00.331Z,0
2022-12-26T01:05:00.325Z,0
2022-12-26T01:10:00.338Z,0
2022-12-26T01:15:00.336Z,0
2022-12-26T01:20:00.345Z,0
2022-12-26T01:25:00.323Z,0
2022-12-26T01:30:00.359Z,0
2022-12-26T01:35:00.345Z,0
2022-12-26T01:40:00.348Z,0
2022-12-26T01:45:00.324Z,0
2022-12-26T01:50:00.342Z,0
2022-12-26T01:55:00.340Z,0
2022-12-26T02:00:00.328Z,0
2022-12-26T02:05:00.335Z,0
2022-12-26T02:10:00.328Z,0
2022-12-26T02:15:00.338Z,0
2022-12-26T02:20:00.336Z,0
2022-12-26T02:25:00.333Z,0
2022-12-26T02:30:00.345Z,0
2022-12-26T02:35:00.334Z,0
2022-12-26T02:40:00.327Z,0
2022-12-26T02:45:00.327Z,0
2022-12-26T02:50:00.338Z,0
2022-12-26T02:55:00.359Z,0
2022-12-26T03:00:00.343Z,0
2022-12-26T03:05:00.346Z,0
2022-12-26T03:10:00.320Z,0
2022-12-26T03:15:00.381Z,0
2022-12-26T03:20:00.465Z,0
2022-12-26T03:25:00.320Z,0
2022-12-26T03:30:00.338Z,0
2022-12-26T03:35:00.332Z,0
2022-12-26T03:40:00.335Z,0
2022-12-26T03:45:00.326Z,0
2022-12-26T03:50:00.346Z,0
2022-12-26T03:55:00.344Z,0
2022-12-26T04:00:00.544Z,0
2022-12-26T04:05:00.335Z,0
2022-12-26T04:10:00.336Z,0
2022-12-26T04:20:00.421Z,0
2022-12-26T04:25:00.324Z,0
2022-12-26T04:30:00.356Z,0
2022-12-26T04:35:00.330Z,0
2022-12-26T04:40:00.376Z,0
2022-12-26T04:45:00.326Z,0
2022-12-26T04:50:00.336Z,0
2022-12-26T04:55:00.331Z,0
2022-12-26T05:00:00.339Z,0
2022-12-26T05:05:00.329Z,0
2022-12-26T05:10:00.331Z,0
2022-12-26T05:15:00.325Z,0
2022-12-26T05:20:00.325Z,0
2022-12-26T05:25:00.324Z,0
2022-12-26T05:30:00.424Z,0
2022-12-26T05:35:00.324Z,0
2022-12-26T05:40:00.332Z,0
2022-12-26T05:45:00.327Z,0
2022-12-26T05:50:00.361Z,0
2022-12-26T05:55:00.392Z,0
2022-12-26T06:00:00.360Z,0
2022-12-26T06:05:00.409Z,0
2022-12-26T06:10:00.360Z,0
2022-12-26T06:15:00.389Z,0
2022-12-26T06:20:00.366Z,0
2022-12-26T06:25:00.386Z,0
2022-12-26T06:30:00.416Z,0
2022-12-26T06:35:00.371Z,0
2022-12-26T06:40:00.381Z,0
2022-12-26T06:45:00.643Z,0
2022-12-26T06:50:00.326Z,0
2022-12-26T06:55:00.327Z,0
2022-12-26T07:00:00.330Z,0
2022-12-26T07:05:00.354Z,0
2022-12-26T07:10:00.341Z,0
2022-12-26T07:15:01.902Z,7
2022-12-26T07:20:00.331Z,14
2022-12-26T07:25:00.326Z,28
2022-12-26T07:30:00.328Z,49
2022-12-26T07:35:00.341Z,69
2022-12-26T07:40:00.351Z,115
2022-12-26T07:45:00.334Z,123
2022-12-26T07:50:00.340Z,162
2022-12-26T07:55:00.332Z,265
2022-12-26T08:00:00.346Z,312
2022-12-26T08:05:00.325Z,433
2022-12-26T08:10:00.340Z,502
2022-12-26T08:15:00.337Z,636
2022-12-26T08:20:00.320Z,810
2022-12-26T08:25:00.380Z,1171
2022-12-26T08:30:00.339Z,1488
2022-12-26T08:35:00.338Z,1311
2022-12-26T08:40:00.326Z,1889
2022-12-26T08:45:00.339Z,2397
2022-12-26T08:50:00.331Z,1890
2022-12-26T08:55:00.330Z,1334
2022-12-26T09:00:00.337Z,1149
2022-12-26T09:05:00.338Z,1344
2022-12-26T09:10:00.329Z,869
2022-12-26T09:15:00.358Z,1300
2022-12-26T09:20:00.345Z,796
2022-12-26T09:25:00.321Z,903
2022-12-26T09:30:00.342Z,452
2022-12-26T09:35:00.335Z,360
2022-12-26T09:40:00.363Z,216
2022-12-26T09:45:00.324Z,222
2022-12-26T09:50:00.349Z,397
2022-12-26T09:55:00.332Z,1071
2022-12-26T10:00:00.391Z,938
2022-12-26T10:05:00.483Z,1199
2022-12-26T10:10:00.351Z,2695
2022-12-26T10:15:00.350Z,2688
2022-12-26T10:20:00.330Z,1598
2022-12-26T10:25:00.331Z,1042
2022-12-26T10:30:00.337Z,2333
2022-12-26T10:35:00.326Z,3025
2022-12-26T10:40:00.335Z,3909
2022-12-26T10:45:00.333Z,2701
2022-12-26T10:50:00.336Z,2721
2022-12-26T10:55:28.383Z,2125
2022-12-26T11:00:00.465Z,3486
2022-12-26T11:05:33.410Z,4456
2022-12-26T11:10:00.380Z,3378
2022-12-26T11:15:00.334Z,5605
2022-12-26T11:20:00.338Z,9147
2022-12-26T11:25:00.324Z,3824
2022-12-26T11:30:00.348Z,9143
2022-12-26T11:35:00.377Z,4111
2022-12-26T11:40:00.335Z,10740
2022-12-26T11:45:00.345Z,7354
2022-12-26T11:50:00.330Z,6758
2022-12-26T11:55:00.340Z,4906
2022-12-26T12:00:00.337Z,8067
2022-12-26T12:05:00.333Z,3062
2022-12-26T12:10:00.361Z,3130
2022-12-26T12:15:00.330Z,4048
2022-12-26T12:20:00.331Z,4958
2022-12-26T12:25:00.358Z,3399
2022-12-26T12:30:00.342Z,2559
2022-12-26T12:35:00.334Z,2570
2022-12-26T12:40:00.344Z,1785
2022-12-26T12:45:00.329Z,1576
2022-12-26T12:50:00.341Z,1379
2022-12-26T12:55:00.335Z,1374
2022-12-26T13:00:00.351Z,1548
2022-12-26T13:05:00.350Z,1742
2022-12-26T13:10:00.352Z,1742
2022-12-26T13:15:00.344Z,1828
2022-12-26T13:20:02.533Z,1550
2022-12-26T13:25:00.340Z,1550
2022-12-26T13:30:00.353Z,1550
2022-12-26T13:35:00.333Z,1550
2022-12-26T13:40:00.321Z,1550
2022-12-26T13:45:00.336Z,1969
2022-12-26T13:50:00.339Z,1274
2022-12-26T13:55:00.327Z,1127
2022-12-26T14:00:00.367Z,985
2022-12-26T14:05:00.339Z,1420
2022-12-26T14:10:00.356Z,1615
2022-12-26T14:15:00.340Z,1615
2022-12-26T14:20:00.343Z,1216
2022-12-26T14:25:00.334Z,1081
2022-12-26T14:30:00.348Z,957
2022-12-26T14:35:00.329Z,957
2022-12-26T14:40:00.328Z,850
2022-12-26T14:45:00.328Z,850
2022-12-26T14:50:00.342Z,850
2022-12-26T14:55:00.327Z,672
2022-12-26T15:00:03.604Z,598
2022-12-26T15:05:00.348Z,450
2022-12-26T15:10:00.333Z,321
2022-12-26T15:15:00.319Z,229
2022-12-26T15:20:00.337Z,229
2022-12-26T15:25:19.945Z,164
2022-12-26T15:30:00.395Z,139
2022-12-26T15:45:00.451Z,30
2022-12-26T15:50:00.405Z,16
2022-12-26T15:55:00.429Z,9
2022-12-26T16:00:00.439Z,9
2022-12-26T16:05:00.407Z,5
2022-12-26T16:10:00.409Z,2
2022-12-26T16:20:00.948Z,2
2022-12-26T16:25:00.685Z,2
2022-12-26T16:35:00.223Z,2
2022-12-26T16:45:00.649Z,2
2022-12-26T16:50:00.903Z,2
2022-12-26T16:55:00.644Z,2
2022-12-26T17:00:00.717Z,0
2022-12-26T17:05:00.622Z,0
2022-12-26T17:10:00.674Z,0
2022-12-26T17:15:00.633Z,0
2022-12-26T17:20:00.704Z,0
2022-12-26T17:25:00.658Z,0
2022-12-26T17:30:00.727Z,0
2022-12-26T17:35:00.584Z,0
2022-12-26T17:40:02.992Z,0
2022-12-26T17:45:00.604Z,0
2022-12-26T17:50:00.572Z,0
2022-12-26T17:55:00.610Z,0
2022-12-26T18:00:00.702Z,0
2022-12-26T18:05:00.648Z,0
2022-12-26T18:10:00.707Z,0
2022-12-26T18:15:02.430Z,0
2022-12-26T18:20:00.730Z,0
2022-12-26T18:25:01.017Z,0
2022-12-26T18:30:00.622Z,0
2022-12-26T18:35:00.671Z,0
2022-12-26T18:40:00.633Z,0
2022-12-26T18:45:00.590Z,0
2022-12-26T18:50:00.474Z,0
2022-12-26T18:55:00.642Z,0
2022-12-26T19:00:00.575Z,0
2022-12-26T19:05:00.675Z,0
2022-12-26T19:10:00.623Z,0
2022-12-26T19:15:00.738Z,0
2022-12-26T19:20:00.701Z,0
2022-12-26T19:25:00.549Z,0
2022-12-26T19:30:00.543Z,0
2022-12-26T19:35:00.626Z,0
2022-12-26T19:40:00.602Z,0
2022-12-26T19:45:01.456Z,0
2022-12-26T19:50:00.419Z,0
2022-12-26T19:55:00.257Z,0
2022-12-26T20:00:00.268Z,0
2022-12-26T20:05:00.237Z,0
2022-12-26T20:10:00.226Z,0
2022-12-26T20:15:00.248Z,0
2022-12-26T20:20:00.229Z,0
2022-12-26T20:25:00.215Z,0
2022-12-26T20:30:00.236Z,0
2022-12-26T20:35:00.230Z,0
2022-12-26T20:40:00.232Z,0
2022-12-26T20:45:00.222Z,0
2022-12-26T20:50:00.239Z,0
2022-12-26T20:55:00.249Z,0
2022-12-26T21:00:00.307Z,0
2022-12-26T21:05:00.225Z,0
2022-12-26T21:10:00.232Z,0
2022-12-26T21:15:00.213Z,0
2022-12-26T21:20:00.224Z,0
2022-12-26T21:25:00.231Z,0
2022-12-26T21:30:00.237Z,0
2022-12-26T21:35:00.234Z,0
2022-12-26T21:40:00.226Z,0
2022-12-26T21:45:00.249Z,0
2022-12-26T21:50:00.226Z,0
2022-12-26T21:55:00.248Z,0
2022-12-26T22:00:00.279Z,0
2022-12-26T22:05:00.237Z,0
2022-12-26T22:10:00.252Z,0
2022-12-26T22:15:00.258Z,0
2022-12-26T22:20:00.237Z,0
2022-12-26T22:25:00.225Z,0
2022-12-26T22:30:00.277Z,0
2022-12-26T22:35:00.220Z,0
2022-12-26T22:40:00.253Z,0
2022-12-26T22:45:00.231Z,0
2022-12-26T22:50:00.244Z,0
2022-12-26T22:55:00.233Z,0
2022-12-26T23:00:09.132Z,0
2022-12-26T23:05:00.226Z,0
2022-12-26T23:10:00.225Z,0
2022-12-26T23:15:00.216Z,0
2022-12-26T23:20:00.227Z,0
2022-12-26T23:25:00.226Z,0
2022-12-26T23:30:00.225Z,0
2022-12-26T23:35:00.225Z,0
2022-12-26T23:40:00.229Z,0
2022-12-26T23:45:00.216Z,0
2022-12-26T23:50:00.270Z,0
2022-12-26T23:55:00.220Z,0
